Time;durP1;ratioP1;P1;durP2;ratioP2;P2;SDS_P1;SDS_P2;PMS_P1;PMS_P2;Temp;Humidity;BMP_temperature;BMP_pressure;BME280_temperature;BME280_humidity;BME280_pressure;Samples;Min_cycle;Max_cycle;Signal;HPM_P1;HPM_P2
2023/11/18 00:00:55;;;;;;;1.70;1.58;;;;;;;0.96;100.00;93749.81;2099195;28;20102;-81
2023/11/18 00:01:56;;;;;;;1.83;1.55;;;;;;;0.99;100.00;93751.00;2100276;28;20028;-80
2023/11/18 00:02:58;;;;;;;1.83;1.50;;;;;;;0.89;100.00;93749.66;2114478;28;20023;-80
2023/11/18 00:04:00;;;;;;;1.85;1.30;;;;;;;0.91;100.00;93739.53;2114697;28;20124;-82
2023/11/18 00:05:14;;;;;;;1.50;1.40;;;;;;;0.98;100.00;93750.25;2101737;28;20051;-81
2023/11/18 00:06:15;;;;;;;1.38;1.27;;;;;;;1.04;100.00;93740.22;2100776;28;20473;-81
2023/11/18 00:07:16;;;;;;;1.52;1.40;;;;;;;1.02;100.00;93741.69;2110253;27;20472;-81
2023/11/18 00:08:17;;;;;;;1.45;1.35;;;;;;;0.89;100.00;93736.50;2120229;27;20042;-81
2023/11/18 00:09:19;;;;;;;1.77;1.48;;;;;;;0.88;100.00;93740.22;2120155;27;20047;-81
2023/11/18 00:10:20;;;;;;;2.38;1.20;;;;;;;0.82;100.00;93740.81;2114126;28;20019;-80
2023/11/18 00:11:21;;;;;;;1.77;1.35;;;;;;;0.88;100.00;93740.22;2105400;28;20457;-79
2023/11/18 00:12:24;;;;;;;1.42;1.33;;;;;;;0.85;100.00;93740.91;2106183;28;20028;-81
2023/11/18 00:13:26;;;;;;;2.22;1.50;;;;;;;0.85;100.00;93745.41;2106614;28;20024;-80
2023/11/18 00:14:27;;;;;;;1.30;1.20;;;;;;;0.88;100.00;93739.44;2106411;28;20016;-79
2023/11/18 00:15:28;;;;;;;1.60;1.50;;;;;;;0.93;100.00;93736.59;2104165;28;20017;-80
2023/11/18 00:16:30;;;;;;;1.65;1.42;;;;;;;0.94;100.00;93740.72;2108348;28;20409;-77
2023/11/18 00:17:31;;;;;;;1.55;1.45;;;;;;;0.99;100.00;93741.25;2106170;28;20058;-80
2023/11/18 00:18:32;;;;;;;1.38;1.27;;;;;;;0.94;100.00;93744.13;2106187;28;20020;-83
2023/11/18 00:19:34;;;;;;;1.38;1.02;;;;;;;0.91;100.00;93741.41;2098509;28;20031;-81
2023/11/18 00:20:35;;;;;;;1.00;1.00;;;;;;;0.90;100.00;93742.50;2107094;28;20399;-79
2023/11/18 00:21:37;;;;;;;2.20;1.30;;;;;;;0.85;100.00;93733.00;2115197;28;20478;-81
2023/11/18 00:22:41;;;;;;;2.75;1.30;;;;;;;0.76;100.00;93732.41;2106634;28;20024;-78
2023/11/18 00:23:42;;;;;;;2.25;1.30;;;;;;;0.80;100.00;93735.13;2106660;28;20024;-80
2023/11/18 00:24:43;;;;;;;1.73;1.63;;;;;;;0.73;100.00;93733.84;2106439;28;20539;-79
2023/11/18 00:25:45;;;;;;;1.35;1.25;;;;;;;0.61;100.00;93736.53;2115263;28;20165;-82
2023/11/18 00:26:46;;;;;;;1.70;1.60;;;;;;;0.62;100.00;93732.81;2115149;28;20024;-81
2023/11/18 00:27:46;;;;;;;3.28;1.50;;;;;;;0.74;100.00;93735.34;2098604;28;20021;-80
2023/11/18 00:28:48;;;;;;;1.52;1.30;;;;;;;0.65;100.00;93734.00;2097994;28;20460;-77
2023/11/18 00:29:49;;;;;;;2.80;1.40;;;;;;;0.65;100.00;93739.25;2105709;28;20095;-81
2023/11/18 00:30:50;;;;;;;1.75;1.30;;;;;;;0.78;100.00;93729.44;2104564;28;20057;-81
2023/11/18 00:31:51;;;;;;;1.75;1.40;;;;;;;0.86;100.00;93731.13;2105705;28;20112;-78
2023/11/18 00:32:52;;;;;;;1.25;1.15;;;;;;;0.92;100.00;93743.72;2105429;28;20032;-81
2023/11/18 00:33:53;;;;;;;1.88;1.20;;;;;;;0.87;100.00;93738.69;2098249;28;20028;-80
2023/11/18 00:34:54;;;;;;;2.03;1.60;;;;;;;0.82;100.00;93748.69;2113602;28;20961;-80
2023/11/18 00:36:01;;;;;;;1.77;1.15;;;;;;;0.84;100.00;93749.13;2118620;27;20098;-82
2023/11/18 00:37:02;;;;;;;1.50;1.40;;;;;;;0.88;100.00;93757.84;2107507;28;20055;-81
2023/11/18 00:38:03;;;;;;;1.73;1.30;;;;;;;0.80;100.00;93750.91;2112236;28;20023;-80
2023/11/18 00:39:04;;;;;;;2.50;1.38;;;;;;;0.66;100.00;93752.09;2106571;28;20020;-82
2023/11/18 00:40:09;;;;;;;1.88;1.65;;;;;;;0.58;100.00;93755.63;2109255;28;20109;-80
2023/11/18 00:41:10;;;;;;;1.80;1.52;;;;;;;0.48;100.00;93753.47;2099741;28;20448;-79
2023/11/18 00:42:14;;;;;;;1.55;1.42;;;;;;;0.49;100.00;93757.66;2098630;28;20539;-81
2023/11/18 00:43:15;;;;;;;1.60;1.50;;;;;;;0.54;100.00;93759.25;2102360;28;20028;-82
2023/11/18 00:44:15;;;;;;;1.85;1.63;;;;;;;0.58;100.00;93752.22;2098167;28;20033;-80
2023/11/18 00:45:18;;;;;;;1.60;1.50;;;;;;;0.66;100.00;93748.66;2098049;28;20020;-84
2023/11/18 00:46:19;;;;;;;1.60;1.50;;;;;;;0.60;100.00;93755.28;2100840;28;20025;-82
2023/11/18 00:47:22;;;;;;;2.13;1.80;;;;;;;0.68;100.00;93755.13;2114162;28;20027;-80
2023/11/18 00:48:23;;;;;;;1.83;1.73;;;;;;;0.78;100.00;93755.72;2102636;28;20508;-81
2023/11/18 00:49:25;;;;;;;8.20;1.80;;;;;;;0.91;100.00;93742.16;2101488;28;20062;-81
2023/11/18 00:50:26;;;;;;;14.63;1.95;;;;;;;0.93;100.00;93742.59;2106180;28;20539;-83
2023/11/18 00:51:28;;;;;;;27.80;2.40;;;;;;;0.78;100.00;93748.59;2106337;28;20065;-83
2023/11/18 00:52:29;;;;;;;18.77;1.70;;;;;;;0.83;100.00;93737.06;2106423;28;20067;-85
2023/11/18 00:53:30;;;;;;;16.60;1.77;;;;;;;0.83;100.00;93748.34;2089912;28;20407;-83
2023/11/18 00:54:31;;;;;;;20.30;1.63;;;;;;;0.75;100.00;93752.69;2097958;28;20110;-83
2023/11/18 00:55:32;;;;;;;17.38;1.65;;;;;;;0.58;100.00;93750.38;2106566;28;20462;-84
2023/11/18 00:56:35;;;;;;;1.85;1.50;;;;;;;0.80;100.00;93748.28;2106457;28;20067;-85
2023/11/18 00:57:39;;;;;;;2.05;1.85;;;;;;;0.73;100.00;93743.59;2106916;28;20020;-83
2023/11/18 00:58:40;;;;;;;3.47;1.90;;;;;;;0.74;100.00;93745.13;2106133;28;20024;-84
2023/11/18 00:59:43;;;;;;;1.70;1.60;;;;;;;0.73;100.00;93736.47;2097210;28;20091;-82
2023/11/18 01:00:44;;;;;;;2.03;1.77;;;;;;;0.82;100.00;93740.81;2092522;28;20032;-84
2023/11/18 01:01:45;;;;;;;1.85;1.60;;;;;;;0.83;100.00;93739.69;2098726;28;20027;-82
2023/11/18 01:02:48;;;;;;;2.40;1.48;;;;;;;0.84;100.00;93742.00;2102294;28;20031;-82
2023/11/18 01:03:50;;;;;;;3.08;1.90;;;;;;;0.71;100.00;93732.66;2104718;28;20503;-83
2023/11/18 01:04:51;;;;;;;2.20;1.80;;;;;;;0.65;100.00;93740.00;2101670;28;20111;-82
2023/11/18 01:05:52;;;;;;;1.65;1.55;;;;;;;0.62;100.00;93732.06;2109411;28;20028;-81
2023/11/18 01:06:53;;;;;;;2.55;1.98;;;;;;;0.53;100.00;93734.03;2106197;28;20070;-84
2023/11/18 01:07:54;;;;;;;3.30;1.83;;;;;;;0.32;100.00;93740.28;2106044;28;20097;-81
2023/11/18 01:08:55;;;;;;;3.85;1.67;;;;;;;0.49;100.00;93741.88;2105566;28;20031;-83
2023/11/18 01:09:56;;;;;;;1.63;1.52;;;;;;;0.64;100.00;93730.59;2089719;28;20082;-81
2023/11/18 01:10:57;;;;;;;1.67;1.58;;;;;;;0.63;100.00;93736.22;2089559;28;20584;-82
2023/11/18 01:11:58;;;;;;;2.83;1.60;;;;;;;0.74;100.00;93734.59;2099380;28;20083;-83
2023/11/18 01:12:59;;;;;;;5.78;1.60;;;;;;;0.75;100.00;93736.16;2096272;28;20024;-80
2023/11/18 01:14:01;;;;;;;3.75;1.33;;;;;;;0.70;100.00;93736.38;2094550;28;20041;-81
2023/11/18 01:15:03;;;;;;;4.07;1.60;;;;;;;0.78;100.00;93743.34;2104740;28;20082;-84
2023/11/18 01:16:05;;;;;;;1.50;1.40;;;;;;;0.77;100.00;93739.19;2088410;28;20116;-84
2023/11/18 01:17:06;;;;;;;1.70;1.35;;;;;;;0.69;100.00;93738.25;2084551;28;20024;-83
2023/11/18 01:18:07;;;;;;;1.88;1.40;;;;;;;0.67;100.00;93744.94;2103003;28;20028;-83
2023/11/18 01:19:09;;;;;;;1.85;1.60;;;;;;;0.75;100.00;93741.41;2108193;28;20019;-82
2023/11/18 01:20:10;;;;;;;1.60;1.40;;;;;;;0.61;100.00;93746.28;2031936;27;20034;-80
2023/11/18 01:21:12;;;;;;;4.20;1.70;;;;;;;0.68;100.00;93747.25;2035784;28;20035;-79
2023/11/18 01:22:13;;;;;;;1.70;1.60;;;;;;;0.75;100.00;93750.06;2037363;28;20028;-82
2023/11/18 01:23:15;;;;;;;2.13;1.50;;;;;;;0.65;100.00;93747.13;2042959;28;20040;-79
2023/11/18 01:24:16;;;;;;;1.65;1.55;;;;;;;0.75;100.00;93749.28;2043669;28;20549;-83
2023/11/18 01:25:19;;;;;;;2.25;1.63;;;;;;;0.74;100.00;93755.63;2054621;28;20032;-80
2023/11/18 01:26:21;;;;;;;2.53;1.42;;;;;;;0.74;100.00;93747.75;2055873;28;20024;-82
2023/11/18 01:27:22;;;;;;;3.45;2.00;;;;;;;0.78;100.00;93753.09;2080399;28;20032;-80
2023/11/18 01:28:26;;;;;;;1.45;1.35;;;;;;;0.84;100.00;93760.44;2095043;27;20024;-81
2023/11/18 01:29:27;;;;;;;2.67;1.40;;;;;;;0.92;100.00;93751.59;2104814;28;20012;-81
2023/11/18 01:30:29;;;;;;;3.05;1.50;;;;;;;0.82;100.00;93753.97;2105180;28;20028;-84
2023/11/18 01:31:31;;;;;;;1.42;1.33;;;;;;;0.81;100.00;93760.34;2097864;28;20457;-82
2023/11/18 01:32:32;;;;;;;1.70;1.33;;;;;;;0.88;100.00;93760.50;2105817;28;20457;-83
2023/11/18 01:33:36;;;;;;;2.20;1.60;;;;;;;0.96;100.00;93755.06;2097379;28;20035;-82
2023/11/18 01:34:43;;;;;;;1.67;1.20;;;;;;;0.96;100.00;93754.31;2102927;28;20027;-79
2023/11/18 01:35:44;;;;;;;1.55;1.20;;;;;;;1.06;100.00;93756.44;2112131;28;20031;-82
2023/11/18 01:36:45;;;;;;;1.77;1.20;;;;;;;1.06;100.00;93755.69;2106174;28;20035;-81
2023/11/18 01:37:47;;;;;;;1.40;1.27;;;;;;;1.14;100.00;93754.72;2106191;28;20027;-83
2023/11/18 01:38:48;;;;;;;2.30;1.20;;;;;;;1.19;100.00;93754.50;2114477;28;20019;-83
2023/11/18 01:39:49;;;;;;;1.75;1.17;;;;;;;1.09;100.00;93761.03;2114527;28;20024;-83
2023/11/18 01:40:50;;;;;;;1.83;1.35;;;;;;;1.23;100.00;93761.38;2114465;28;20032;-78
2023/11/18 01:41:51;;;;;;;1.80;1.25;;;;;;;1.26;100.00;93752.03;2106031;28;20016;-80
2023/11/18 01:42:52;;;;;;;1.88;1.05;;;;;;;1.28;100.00;93759.59;2105991;28;20052;-82
2023/11/18 01:43:53;;;;;;;1.48;1.00;;;;;;;1.26;100.00;93749.38;2106077;28;20020;-82
2023/11/18 01:44:55;;;;;;;2.78;1.20;;;;;;;1.34;100.00;93745.81;2097576;28;20031;-83
2023/11/18 01:45:57;;;;;;;1.77;1.20;;;;;;;1.33;100.00;93751.44;2113169;28;20055;-84
2023/11/18 01:46:58;;;;;;;3.05;1.30;;;;;;;1.22;100.00;93751.94;2103687;28;20592;-82
2023/11/18 01:47:59;;;;;;;2.25;1.20;;;;;;;1.26;100.00;93749.38;2105421;28;20032;-84
2023/11/18 01:49:03;;;;;;;1.80;1.00;;;;;;;1.25;100.00;93755.75;2102048;28;20491;-81
2023/11/18 01:50:08;;;;;;;2.25;1.15;;;;;;;1.06;100.00;93740.66;2097698;28;20028;-81
2023/11/18 01:51:12;;;;;;;2.05;1.10;;;;;;;1.16;100.00;93749.91;2106505;28;20388;-82
2023/11/18 01:52:13;;;;;;;2.83;1.00;;;;;;;1.12;100.00;93739.28;2105826;28;20031;-85
2023/11/18 01:53:15;;;;;;;2.20;1.00;;;;;;;0.95;100.00;93745.66;2114107;28;20046;-81
2023/11/18 01:54:19;;;;;;;1.20;1.10;;;;;;;0.91;100.00;93738.78;2111804;28;20019;-81
2023/11/18 01:55:21;;;;;;;1.70;1.05;;;;;;;0.88;100.00;93742.88;2113515;28;20027;-83
2023/11/18 01:56:25;;;;;;;1.45;1.35;;;;;;;0.96;100.00;93735.88;2114455;28;20054;-83
2023/11/18 01:57:27;;;;;;;2.47;0.98;;;;;;;0.90;100.00;93742.50;2105101;28;20423;-85
2023/11/18 01:58:30;;;;;;;1.23;1.02;;;;;;;0.89;100.00;93741.00;2105686;28;20027;-82
2023/11/18 01:59:34;;;;;;;1.20;0.90;;;;;;;0.90;100.00;93747.78;2113082;28;20479;-82
2023/11/18 02:00:38;;;;;;;0.90;0.90;;;;;;;0.85;100.00;93746.16;2098188;28;20107;-80
2023/11/18 02:01:40;;;;;;;1.40;1.10;;;;;;;0.91;100.00;93736.91;2097711;28;20016;-82
2023/11/18 02:02:44;;;;;;;0.90;0.90;;;;;;;0.87;100.00;93737.91;2092290;28;20450;-83
2023/11/18 02:03:47;;;;;;;1.05;0.95;;;;;;;0.92;100.00;93743.72;2094475;28;20028;-85
2023/11/18 02:04:48;;;;;;;1.25;1.15;;;;;;;0.89;100.00;93741.75;2098083;28;20210;-82
2023/11/18 02:05:49;;;;;;;2.05;1.38;;;;;;;0.93;100.00;93739.97;2097424;28;20036;-83
2023/11/18 02:06:51;;;;;;;1.30;1.20;;;;;;;0.86;100.00;93746.91;2089231;28;20470;-86
2023/11/18 02:07:52;;;;;;;1.30;1.20;;;;;;;0.84;100.00;93749.91;2088521;28;21243;-84
2023/11/18 02:08:53;;;;;;;1.33;1.23;;;;;;;0.94;100.00;93730.22;2097635;28;20512;-83
2023/11/18 02:09:55;;;;;;;1.20;1.10;;;;;;;0.93;100.00;93739.97;2114255;28;20495;-85
2023/11/18 02:11:06;;;;;;;3.60;1.33;;;;;;;0.93;100.00;93739.97;2113620;28;20435;-83
2023/11/18 02:12:27;;;;;;;1.25;1.15;;;;;;;0.86;100.00;93741.66;2098244;28;20038;-83
2023/11/18 02:13:32;;;;;;;1.20;1.08;;;;;;;0.74;100.00;93740.63;2086692;28;20024;-83
2023/11/18 02:14:39;;;;;;;1.30;1.15;;;;;;;0.71;100.00;93738.69;2090753;28;20052;-83
2023/11/18 02:15:41;;;;;;;1.02;1.00;;;;;;;0.65;100.00;93737.38;2106481;28;20081;-83
2023/11/18 02:16:44;;;;;;;1.60;1.40;;;;;;;0.89;100.00;93741.75;2105920;28;20024;-82
2023/11/18 02:17:46;;;;;;;2.08;1.35;;;;;;;0.68;100.00;93736.72;2089768;28;20029;-83
2023/11/18 02:18:49;;;;;;;1.67;1.33;;;;;;;0.70;100.00;93736.38;2097815;28;20052;-83
2023/11/18 02:19:52;;;;;;;2.08;1.30;;;;;;;0.66;100.00;93733.66;2100355;28;20028;-82
2023/11/18 02:20:57;;;;;;;2.80;1.17;;;;;;;0.66;100.00;93743.41;2106070;28;20427;-85
2023/11/18 02:22:00;;;;;;;1.15;1.10;;;;;;;0.59;100.00;93737.97;2113689;28;20034;-83
2023/11/18 02:24:30;;;;;;;;;;;;;;;-0.48;100.00;93745.50;2143895;27;20110;-81
2023/11/18 02:25:34;;;;;;;1.23;1.10;;;;;;;-0.43;100.00;93737.44;2119013;28;19919;-81
2023/11/18 02:26:35;;;;;;;1.30;1.02;;;;;;;-0.41;100.00;93736.00;2113433;28;20038;-83
2023/11/18 02:27:37;;;;;;;1.65;1.48;;;;;;;-0.52;100.00;93742.81;2102942;28;20031;-82
2023/11/18 02:28:38;;;;;;;1.02;1.02;;;;;;;-0.51;100.00;93736.47;2103249;28;20132;-82
2023/11/18 02:29:42;;;;;;;1.52;1.30;;;;;;;-0.43;100.00;93746.06;2108530;28;20024;-85
2023/11/18 02:30:43;;;;;;;8.45;1.50;;;;;;;-0.45;100.00;93747.50;2121899;27;20016;-85
2023/11/18 02:31:52;;;;;;;1.27;1.10;;;;;;;-0.34;100.00;93741.47;2121499;28;20023;-85
2023/11/18 02:33:33;;;;;;;3.58;1.20;;;;;;;-0.36;100.00;93750.75;2106221;28;20449;-85
2023/11/18 02:34:40;;;;;;;3.88;1.30;;;;;;;-0.34;100.00;93751.22;2113667;27;20407;-82
2023/11/18 02:35:51;;;;;;;2.67;1.20;;;;;;;-0.33;100.00;93748.25;2121427;27;20015;-84
2023/11/18 02:36:59;;;;;;;1.95;1.25;;;;;;;-0.36;100.00;93750.75;2121368;28;20023;-82
2023/11/18 02:38:02;;;;;;;1.25;1.15;;;;;;;-0.38;100.00;93750.34;2106315;28;20103;-82
2023/11/18 02:39:08;;;;;;;1.55;1.23;;;;;;;-0.51;100.00;93746.97;2113613;27;20804;-82
2023/11/18 02:40:14;;;;;;;1.52;1.13;;;;;;;-0.47;100.00;93747.06;2121901;27;20441;-84
2023/11/18 02:41:18;;;;;;;2.70;1.30;;;;;;;-0.46;100.00;93751.22;2113627;28;20051;-86
2023/11/18 02:42:22;;;;;;;1.13;1.02;;;;;;;-0.45;100.00;93747.50;2105274;28;20016;-80
2023/11/18 02:43:28;;;;;;;1.55;1.00;;;;;;;-0.40;100.00;93755.13;2121772;27;20019;-81
2023/11/18 02:44:32;;;;;;;1.15;1.05;;;;;;;-0.36;100.00;93751.53;2120354;28;20477;-84
2023/11/18 02:45:35;;;;;;;1.50;1.40;;;;;;;-0.46;100.00;93761.72;2113302;28;20069;-83
2023/11/18 02:46:38;;;;;;;3.42;1.10;;;;;;;-0.65;100.00;93763.06;2113194;28;20039;-84
2023/11/18 02:47:39;;;;;;;1.60;1.40;;;;;;;-0.68;100.00;93757.69;2106695;28;20024;-86
2023/11/18 02:48:41;;;;;;;1.42;1.17;;;;;;;-0.65;100.00;93757.81;2096425;28;20036;-84
2023/11/18 02:49:42;;;;;;;1.23;1.13;;;;;;;-0.61;100.00;93756.06;2095663;28;20025;-83
2023/11/18 02:50:43;;;;;;;1.13;1.10;;;;;;;-0.54;100.00;93760.72;2102230;28;20027;-86
2023/11/18 02:51:47;;;;;;;1.45;1.35;;;;;;;-0.56;100.00;93747.94;2096084;28;20024;-84
2023/11/18 02:52:48;;;;;;;3.85;1.30;;;;;;;-0.46;100.00;93751.22;2090527;28;20466;-83
2023/11/18 02:53:50;;;;;;;17.77;1.20;;;;;;;-0.44;100.00;93751.63;2108106;28;20016;-86
2023/11/18 02:54:51;;;;;;;6.97;1.00;;;;;;;-0.43;100.00;93748.69;2108052;28;20028;-86
2023/11/18 02:55:53;;;;;;;14.63;1.30;;;;;;;-0.60;100.00;93749.69;2098073;28;20055;-86
2023/11/18 02:56:55;;;;;;;26.13;1.50;;;;;;;-0.73;100.00;93748.16;2091753;28;20082;-84
2023/11/18 02:57:56;;;;;;;11.10;1.02;;;;;;;-0.73;100.00;93737.66;2104573;28;20031;-83
2023/11/18 02:58:57;;;;;;;24.75;1.30;;;;;;;-0.65;100.00;93742.03;2112560;28;20031;-85
2023/11/18 03:00:00;;;;;;;11.10;1.25;;;;;;;-0.68;100.00;93739.31;2111790;28;20507;-84
2023/11/18 03:01:01;;;;;;;10.32;1.27;;;;;;;-0.60;100.00;93736.56;2104775;28;20028;-83
2023/11/18 03:02:02;;;;;;;19.58;1.17;;;;;;;-0.64;100.00;93748.06;2105511;28;20484;-85
2023/11/18 03:03:03;;;;;;;25.95;1.30;;;;;;;-0.65;100.00;93746.53;2096077;28;20108;-84
2023/11/18 03:04:04;;;;;;;5.43;0.90;;;;;;;-0.58;100.00;93744.09;2104355;28;20020;-85
2023/11/18 03:05:07;;;;;;;12.10;0.90;;;;;;;-0.54;100.00;93747.59;2112803;28;20098;-87
2023/11/18 03:06:09;;;;;;;17.23;1.05;;;;;;;-0.48;100.00;93742.88;2112736;28;20027;-87
2023/11/18 03:07:10;;;;;;;46.95;1.60;;;;;;;-0.48;100.00;93742.88;2104487;28;20021;-88
2023/11/18 03:08:11;;;;;;;19.23;1.25;;;;;;;-0.48;100.00;93738.44;2112733;27;20024;-86
2023/11/18 03:09:13;;;;;;;17.17;1.05;;;;;;;-0.36;100.00;93737.63;2121102;28;20011;-82
2023/11/18 03:10:20;;;;;;;45.05;1.60;;;;;;;-0.43;100.00;93740.81;2112726;28;20024;-85
2023/11/18 03:11:22;;;;;;;19.20;1.17;;;;;;;-0.57;100.00;93738.53;2113553;28;20034;-85
2023/11/18 03:12:28;;;;;;;4.45;0.80;;;;;;;-0.57;100.00;93740.38;2101953;28;20020;-85
2023/11/18 03:13:29;;;;;;;16.75;8.30;;;;;;;-0.43;100.00;93738.19;2096991;28;20074;-85
2023/11/18 03:14:30;;;;;;;4.15;1.98;;;;;;;-0.46;100.00;93732.84;2112907;28;20099;-82
2023/11/18 03:15:31;;;;;;;6.18;1.52;;;;;;;-0.52;100.00;93734.94;2104326;28;20028;-85
2023/11/18 03:16:45;;;;;;;17.90;1.60;;;;;;;-0.44;100.00;93728.00;2101403;28;20673;-85
2023/11/18 03:17:48;;;;;;;5.10;1.27;;;;;;;-0.48;100.00;93737.63;2106030;28;20032;-86
2023/11/18 03:18:49;;;;;;;8.60;1.35;;;;;;;-0.56;100.00;93737.44;2097371;28;20025;-84
2023/11/18 03:19:50;;;;;;;1.95;1.40;;;;;;;-0.47;100.00;93726.81;2100173;28;20043;-84
2023/11/18 03:20:51;;;;;;;8.02;1.58;;;;;;;-0.36;100.00;93724.50;2112770;27;20019;-84
2023/11/18 03:21:53;;;;;;;3.28;1.48;;;;;;;-0.46;100.00;93723.09;2112450;28;20519;-84
2023/11/18 03:22:54;;;;;;;4.57;1.63;;;;;;;-0.37;100.00;93725.59;2104218;28;20050;-84
2023/11/18 03:23:55;;;;;;;2.92;1.60;;;;;;;-0.40;100.00;93728.88;2103053;28;20040;-82
2023/11/18 03:24:56;;;;;;;4.75;1.73;;;;;;;-0.35;100.00;93736.53;2104225;28;20089;-81
2023/11/18 03:25:57;;;;;;;2.00;1.80;;;;;;;-0.35;100.00;93726.03;2104278;28;20024;-85
2023/11/18 03:26:58;;;;;;;3.67;1.95;;;;;;;-0.48;100.00;93729.75;2098483;28;20032;-83
2023/11/18 03:27:59;;;;;;;3.17;2.05;;;;;;;-0.42;100.00;93733.72;2109749;28;20036;-84
2023/11/18 03:29:00;;;;;;;3.67;2.30;;;;;;;-0.47;100.00;93734.69;2095647;28;20028;-84
2023/11/18 03:30:02;;;;;;;3.38;1.88;;;;;;;-0.49;100.00;93733.50;2099572;28;20374;-83
2023/11/18 03:31:04;;;;;;;2.88;2.25;;;;;;;-0.39;100.00;93735.69;2095985;28;20627;-81
2023/11/18 03:32:06;;;;;;;3.38;2.05;;;;;;;-0.52;100.00;93735.69;2093319;28;20365;-84
2023/11/18 03:33:10;;;;;;;3.03;2.47;;;;;;;-0.56;100.00;93732.19;2099529;28;20024;-83
2023/11/18 03:34:11;;;;;;;4.10;2.53;;;;;;;-0.58;100.00;93737.00;2104955;28;20095;-84
2023/11/18 03:35:12;;;;;;;3.28;2.08;;;;;;;-0.49;100.00;93733.50;2092717;28;20363;-85
2023/11/18 03:36:13;;;;;;;4.60;2.65;;;;;;;-0.54;100.00;93737.88;2106079;28;20020;-84
2023/11/18 03:37:16;;;;;;;3.58;2.17;;;;;;;-0.54;100.00;93735.25;2106795;28;20024;-86
2023/11/18 03:38:17;;;;;;;2.60;2.25;;;;;;;-0.51;100.00;93736.47;2096259;28;20028;-84
2023/11/18 03:39:18;;;;;;;2.88;2.13;;;;;;;-0.40;100.00;93744.63;2090377;28;20025;-85
2023/11/18 03:40:19;;;;;;;2.53;2.33;;;;;;;-0.47;100.00;93747.81;2082243;28;20033;-84
2023/11/18 03:41:23;;;;;;;3.92;2.40;;;;;;;-0.52;100.00;93746.19;2094359;28;20039;-86
2023/11/18 03:42:24;;;;;;;3.38;2.40;;;;;;;-0.59;100.00;93742.59;2098970;28;20024;-85
2023/11/18 03:43:25;;;;;;;2.75;2.15;;;;;;;-0.62;100.00;93754.50;2089989;28;20104;-86
2023/11/18 03:44:26;;;;;;;2.50;2.28;;;;;;;-0.62;100.00;93751.09;2082259;28;20025;-83
2023/11/18 03:45:27;;;;;;;2.50;2.30;;;;;;;-0.65;100.00;93752.53;2085874;28;20029;-83
2023/11/18 03:46:34;;;;;;;3.60;2.40;;;;;;;-0.72;100.00;93749.69;2098574;28;20032;-83
2023/11/18 03:47:35;;;;;;;2.38;2.17;;;;;;;-0.70;100.00;93752.78;2099263;28;20394;-83
2023/11/18 03:48:36;;;;;;;3.58;2.38;;;;;;;-0.81;100.00;93747.19;2089476;28;20394;-80
2023/11/18 03:49:37;;;;;;;5.13;2.50;;;;;;;-0.85;100.00;93754.16;2089333;28;20053;-81
2023/11/18 03:50:38;;;;;;;4.57;2.40;;;;;;;-0.72;100.00;93752.31;2106449;28;20074;-83
2023/11/18 03:51:39;;;;;;;6.00;2.15;;;;;;;-0.74;100.00;93759.78;2098439;28;20055;-81
2023/11/18 03:52:40;;;;;;;3.55;2.28;;;;;;;-0.76;100.00;93762.69;2090021;28;20032;-82
2023/11/18 03:53:42;;;;;;;5.65;3.05;;;;;;;-0.70;100.00;93750.16;2090096;28;20021;-83
2023/11/18 03:54:43;;;;;;;2.40;2.20;;;;;;;-0.66;100.00;93756.28;2102993;28;20027;-83
2023/11/18 03:55:44;;;;;;;2.42;2.20;;;;;;;-0.59;100.00;93756.47;2105752;28;20553;-81
2023/11/18 03:56:45;;;;;;;2.67;2.30;;;;;;;-0.67;100.00;93752.09;2105663;28;20028;-84
2023/11/18 03:57:46;;;;;;;6.18;2.30;;;;;;;-0.70;100.00;93754.59;2106488;28;20028;-83
2023/11/18 03:58:47;;;;;;;4.13;2.10;;;;;;;-0.72;100.00;93748.94;2090130;28;20044;-83
2023/11/18 03:59:48;;;;;;;2.78;2.00;;;;;;;-0.67;100.00;93738.97;2098267;28;20067;-82
2023/11/18 04:00:57;;;;;;;2.47;2.28;;;;;;;-0.60;100.00;93747.06;2097771;28;20028;-84
2023/11/18 04:01:58;;;;;;;4.40;2.17;;;;;;;-0.65;100.00;93746.53;2099509;28;20023;-82
2023/11/18 04:02:59;;;;;;;2.75;2.28;;;;;;;-0.59;100.00;93745.22;2098370;28;20032;-84
2023/11/18 04:04:00;;;;;;;2.28;2.08;;;;;;;-0.68;100.00;93747.94;2098293;28;20489;-84
2023/11/18 04:05:01;;;;;;;3.83;2.28;;;;;;;-0.65;100.00;93747.28;2098347;28;20052;-83
2023/11/18 04:06:03;;;;;;;7.18;2.08;;;;;;;-0.66;100.00;93748.41;2098197;28;20547;-81
2023/11/18 04:07:04;;;;;;;5.13;2.15;;;;;;;-0.66;100.00;93747.59;2090227;28;20497;-83
2023/11/18 04:08:06;;;;;;;2.33;1.90;;;;;;;-0.58;100.00;93742.25;2098371;28;20082;-84
2023/11/18 04:09:09;;;;;;;2.08;1.73;;;;;;;-0.55;100.00;93735.59;2106701;28;20464;-81
2023/11/18 04:10:10;;;;;;;2.65;2.17;;;;;;;-0.60;100.00;93739.19;2106750;28;20483;-82
2023/11/18 04:11:13;;;;;;;2.88;2.20;;;;;;;-0.56;100.00;93734.06;2098488;28;20725;-83
2023/11/18 04:12:16;;;;;;;2.55;2.10;;;;;;;-0.61;100.00;93740.28;2089573;28;20024;-83
2023/11/18 04:13:17;;;;;;;2.38;2.05;;;;;;;-0.55;100.00;93741.59;2098612;28;20036;-85
2023/11/18 04:14:18;;;;;;;2.00;1.90;;;;;;;-0.58;100.00;93744.88;2104429;28;20119;-83
2023/11/18 04:15:19;;;;;;;3.22;1.95;;;;;;;-0.53;100.00;93733.38;2106718;28;20015;-84
2023/11/18 04:16:20;;;;;;;2.03;1.80;;;;;;;-0.60;100.00;93738.44;2106688;28;20084;-85
2023/11/18 04:17:21;;;;;;;2.72;1.90;;;;;;;-0.82;100.00;93748.28;2098149;28;20359;-84
2023/11/18 04:18:23;;;;;;;1.95;1.67;;;;;;;-0.75;100.00;93745.09;2098124;28;20135;-84
2023/11/18 04:19:24;;;;;;;2.65;1.65;;;;;;;-0.67;100.00;93751.34;2090683;28;20056;-82
2023/11/18 04:20:25;;;;;;;2.95;2.15;;;;;;;-0.60;100.00;93741.81;2098011;28;20028;-84
2023/11/18 04:21:26;;;;;;;2.10;1.90;;;;;;;-0.62;100.00;93746.63;2090005;28;20021;-84
2023/11/18 04:22:27;;;;;;;2.67;2.28;;;;;;;-0.61;100.00;93750.03;2098156;28;20107;-82
2023/11/18 04:23:30;;;;;;;2.83;2.25;;;;;;;-0.67;100.00;93746.84;2097766;28;20385;-84
2023/11/18 04:24:31;;;;;;;2.03;1.90;;;;;;;-0.67;100.00;93743.47;2105187;28;20388;-82
2023/11/18 04:25:32;;;;;;;2.17;1.98;;;;;;;-0.77;100.00;93740.19;2098209;28;20035;-83
2023/11/18 04:26:33;;;;;;;2.33;2.13;;;;;;;-0.77;100.00;93744.66;2104916;28;20523;-83
2023/11/18 04:27:34;;;;;;;2.20;1.98;;;;;;;-0.72;100.00;93741.06;2090642;28;20522;-83
2023/11/18 04:28:36;;;;;;;2.65;2.15;;;;;;;-0.77;100.00;93752.53;2089688;28;20036;-82
2023/11/18 04:29:37;;;;;;;2.33;2.13;;;;;;;-0.46;100.00;93748.59;2094500;28;20033;-80
2023/11/18 04:30:38;;;;;;;3.55;1.88;;;;;;;-0.51;100.00;93754.84;2089794;28;20500;-85
2023/11/18 04:31:39;;;;;;;2.47;2.00;;;;;;;-0.56;100.00;93740.06;2081710;28;20029;-81
2023/11/18 04:32:42;;;;;;;2.22;1.98;;;;;;;-0.62;100.00;93745.84;2089934;28;20032;-82
2023/11/18 04:33:43;;;;;;;2.03;1.80;;;;;;;-0.66;100.00;93748.41;2093546;28;20504;-84
2023/11/18 04:34:44;;;;;;;1.95;1.73;;;;;;;-0.70;100.00;93749.34;2089802;28;20078;-83
2023/11/18 04:35:46;;;;;;;2.17;1.90;;;;;;;-0.76;100.00;93754.06;2098169;28;20473;-81
2023/11/18 04:36:47;;;;;;;2.33;2.05;;;;;;;-0.74;100.00;93751.13;2097541;28;20492;-81
2023/11/18 04:37:48;;;;;;;2.60;2.20;;;;;;;-0.74;100.00;93753.75;2106445;28;20027;-84
2023/11/18 04:38:49;;;;;;;4.00;2.15;;;;;;;-0.78;100.00;93751.78;2088158;28;20029;-85
2023/11/18 04:39:50;;;;;;;2.60;1.90;;;;;;;-0.60;100.00;93751.56;2097941;28;20016;-84
2023/11/18 04:40:54;;;;;;;2.33;1.80;;;;;;;-0.70;100.00;93765.09;2098146;28;20534;-82
2023/11/18 04:42:01;;;;;;;1.88;1.67;;;;;;;-0.89;100.00;93771.66;2106599;28;20027;-86
2023/11/18 04:43:02;;;;;;;2.30;1.70;;;;;;;-0.91;100.00;93775.72;2107025;28;20028;-80
2023/11/18 04:44:04;;;;;;;2.50;1.92;;;;;;;-0.86;100.00;93771.00;2106233;28;20016;-82
2023/11/18 04:45:05;;;;;;;3.15;1.98;;;;;;;-0.90;100.00;93764.13;2114711;28;20567;-83
2023/11/18 04:46:06;;;;;;;2.22;2.03;;;;;;;-0.87;100.00;93766.09;2098240;28;20059;-84
2023/11/18 04:47:07;;;;;;;3.55;2.20;;;;;;;-0.93;100.00;93767.41;2105267;28;20020;-85
2023/11/18 04:48:09;;;;;;;2.65;1.92;;;;;;;-0.98;100.00;93757.13;2097069;28;20021;-85
2023/11/18 04:49:10;;;;;;;2.50;1.80;;;;;;;-0.89;100.00;93750.66;2097758;28;20087;-85
2023/11/18 04:50:11;;;;;;;3.30;1.80;;;;;;;-0.88;100.00;93765.34;2105254;28;20024;-84
2023/11/18 04:51:12;;;;;;;2.65;2.00;;;;;;;-0.98;100.00;93765.00;2100014;28;20048;-85
2023/11/18 04:52:13;;;;;;;2.90;1.92;;;;;;;-0.88;100.00;93754.84;2097745;28;20017;-83
2023/11/18 04:53:14;;;;;;;2.92;2.22;;;;;;;-0.88;100.00;93761.94;2097984;28;20032;-81